Time;durP1;ratioP1;P1;durP2;ratioP2;P2;SDS_P1;SDS_P2;PMS_P1;PMS_P2;Temp;Humidity;BMP_temperature;BMP_pressure;BME280_temperature;BME280_humidity;BME280_pressure;Samples;Min_cycle;Max_cycle;Signal;HPM_P1;HPM_P2
2021/08/02 00:01:51;;;;;;;4.47;1.70;;;14.90;91.70;;;;;;5069947;28;20548;-78
2021/08/02 00:04:18;;;;;;;7.40;1.80;;;15.00;91.70;;;;;;5068852;28;20028;-79
2021/08/02 00:06:46;;;;;;;4.60;2.05;;;15.00;91.70;;;;;;5063927;28;20029;-78
2021/08/02 00:09:15;;;;;;;5.50;1.73;;;14.90;91.60;;;;;;5052638;28;20029;-78
2021/08/02 00:11:49;;;;;;;4.53;1.65;;;14.90;91.70;;;;;;5068792;28;20546;-78
2021/08/02 00:14:17;;;;;;;6.78;2.08;;;15.00;91.80;;;;;;5052350;28;20052;-78
2021/08/02 00:16:42;;;;;;;7.47;1.60;;;15.00;91.80;;;;;;5053323;28;20499;-78
2021/08/02 00:19:09;;;;;;;8.25;1.83;;;14.90;91.70;;;;;;5053582;28;20025;-78
2021/08/02 00:21:36;;;;;;;5.03;2.00;;;15.00;91.80;;;;;;5053397;28;20025;-78
2021/08/02 00:24:02;;;;;;;5.32;2.03;;;14.90;91.80;;;;;;5052323;28;20017;-78
2021/08/02 00:26:29;;;;;;;9.55;1.95;;;14.90;91.80;;;;;;5053307;28;20373;-78
2021/08/02 00:28:57;;;;;;;6.93;2.08;;;14.90;91.80;;;;;;5068817;28;20440;-78
2021/08/02 00:31:23;;;;;;;6.50;1.95;;;14.90;91.80;;;;;;5053415;28;20051;-78
2021/08/02 00:33:49;;;;;;;5.07;1.65;;;15.00;91.90;;;;;;5068883;28;20127;-78
2021/08/02 00:36:21;;;;;;;5.55;2.08;;;14.90;91.90;;;;;;5068093;28;20040;-77
2021/08/02 00:38:54;;;;;;;5.05;2.17;;;14.90;91.90;;;;;;5053218;28;20107;-78
2021/08/02 00:41:47;;;;;;;4.78;2.10;;;14.90;92.00;;;;;;5051766;28;20028;-78
2021/08/02 00:44:21;;;;;;;7.97;2.38;;;15.00;92.00;;;;;;5053830;28;20147;-78
2021/08/02 00:46:52;;;;;;;9.13;2.05;;;15.00;92.00;;;;;;5053274;28;20032;-78
2021/08/02 00:49:22;;;;;;;6.68;1.88;;;14.90;92.00;;;;;;5052010;28;20107;-78
2021/08/02 00:51:52;;;;;;;9.35;1.90;;;15.00;92.10;;;;;;5053281;28;20052;-78
2021/08/02 00:54:20;;;;;;;6.47;2.65;;;15.00;92.10;;;;;;5051866;28;20032;-79
2021/08/02 00:56:50;;;;;;;10.05;2.63;;;15.00;92.10;;;;;;5051812;28;20064;-78
2021/08/02 00:59:16;;;;;;;4.93;1.85;;;15.00;92.10;;;;;;5053039;28;20029;-78
2021/08/02 01:01:44;;;;;;;5.47;1.77;;;15.00;92.20;;;;;;5068915;28;20029;-78
2021/08/02 01:04:11;;;;;;;8.45;2.15;;;15.00;92.10;;;;;;5053058;28;20013;-78
2021/08/02 01:06:38;;;;;;;4.90;1.80;;;15.00;92.20;;;;;;5061807;28;20025;-78
2021/08/02 01:09:06;;;;;;;8.98;1.85;;;15.00;92.20;;;;;;5062919;28;20462;-79
2021/08/02 01:11:33;;;;;;;6.22;1.80;;;15.00;92.20;;;;;;5052763;28;20100;-79
2021/08/02 01:14:02;;;;;;;8.15;1.98;;;15.00;92.20;;;;;;5051655;28;20024;-79
2021/08/02 01:16:29;;;;;;;6.57;1.88;;;15.00;92.20;;;;;;5052840;28;20025;-78
2021/08/02 01:18:55;;;;;;;7.35;1.73;;;14.90;92.10;;;;;;5068125;28;20053;-79
2021/08/02 01:21:21;;;;;;;5.45;1.63;;;14.90;92.20;;;;;;5068836;28;20033;-78
2021/08/02 01:23:48;;;;;;;7.35;1.92;;;14.90;92.20;;;;;;5056775;28;20032;-78
2021/08/02 01:26:49;;;;;;;6.88;1.90;;;14.90;92.20;;;;;;5072064;28;20389;-78
2021/08/02 01:29:52;;;;;;;5.65;1.95;;;14.90;92.30;;;;;;5055529;28;20581;-78
2021/08/02 01:32:19;;;;;;;7.80;2.45;;;14.90;92.30;;;;;;5059193;28;20028;-78
2021/08/02 01:34:45;;;;;;;10.10;2.70;;;14.90;92.30;;;;;;5075109;28;20075;-78
2021/08/02 01:37:11;;;;;;;6.53;2.03;;;14.90;92.30;;;;;;5069110;28;20061;-78
2021/08/02 01:39:42;;;;;;;8.38;2.25;;;14.80;92.40;;;;;;5055057;28;20376;-78
2021/08/02 01:42:07;;;;;;;7.60;1.98;;;14.80;92.40;;;;;;5059222;28;20023;-79
2021/08/02 01:44:33;;;;;;;5.72;3.10;;;14.80;92.50;;;;;;5066527;28;20013;-78
2021/08/02 01:47:09;;;;;;;7.75;2.67;;;14.80;92.50;;;;;;5058885;28;20029;-78
2021/08/02 01:49:39;;;;;;;8.15;2.72;;;14.80;92.50;;;;;;5054988;28;20028;-78
2021/08/02 01:52:15;;;;;;;11.23;2.50;;;14.80;92.60;;;;;;5056367;28;20546;-78
2021/08/02 01:54:55;;;;;;;7.25;3.13;;;14.80;92.60;;;;;;5054812;28;20025;-78
2021/08/02 01:57:47;;;;;;;7.18;2.90;;;14.80;92.70;;;;;;5056140;28;20534;-78
2021/08/02 02:00:14;;;;;;;10.45;3.33;;;14.80;92.70;;;;;;5054803;28;20021;-78
2021/08/02 02:02:42;;;;;;;6.82;2.97;;;14.80;92.80;;;;;;5054977;28;20109;-78
2021/08/02 02:05:15;;;;;;;8.18;3.38;;;14.80;93.10;;;;;;5054994;28;20388;-78
2021/08/02 02:07:56;;;;;;;5.88;2.90;;;14.80;92.80;;;;;;5054755;28;20384;-78
2021/08/02 02:10:24;;;;;;;9.27;3.72;;;14.80;92.80;;;;;;5054583;28;20452;-79
2021/08/02 02:12:52;;;;;;;9.38;3.25;;;14.80;92.90;;;;;;5055248;28;20025;-78
2021/08/02 02:15:18;;;;;;;7.22;3.58;;;14.80;92.90;;;;;;5070640;28;20348;-78
2021/08/02 02:17:48;;;;;;;6.40;2.55;;;14.80;92.90;;;;;;5052935;28;20098;-78
2021/08/02 02:20:14;;;;;;;7.18;3.17;;;14.80;93.00;;;;;;5062943;28;20036;-78
2021/08/02 02:22:41;;;;;;;8.73;2.85;;;14.80;93.00;;;;;;5055299;28;20048;-78
2021/08/02 02:25:09;;;;;;;9.43;3.70;;;14.80;93.00;;;;;;5055486;28;20037;-77
2021/08/02 02:27:36;;;;;;;6.00;2.88;;;14.80;93.00;;;;;;5054204;28;20132;-78
2021/08/02 02:30:04;;;;;;;8.55;3.88;;;14.80;93.10;;;;;;5071098;28;20033;-78
2021/08/02 02:32:31;;;;;;;6.65;3.08;;;14.80;93.10;;;;;;5054446;28;20033;-78
2021/08/02 02:34:58;;;;;;;7.20;2.90;;;14.80;93.10;;;;;;5055354;28;20028;-78
2021/08/02 02:37:24;;;;;;;7.57;2.63;;;14.80;93.10;;;;;;5055512;28;20079;-78
2021/08/02 02:39:53;;;;;;;7.57;3.47;;;14.80;93.10;;;;;;5054760;28;20055;-78
2021/08/02 02:42:22;;;;;;;8.45;3.25;;;14.80;93.10;;;;;;5072041;28;20029;-78
2021/08/02 02:44:49;;;;;;;4.95;2.78;;;14.90;93.20;;;;;;5071072;28;20037;-77
2021/08/02 02:47:14;;;;;;;8.75;3.17;;;14.90;93.10;;;;;;5071106;28;20495;-77
2021/08/02 02:49:40;;;;;;;8.75;3.45;;;14.80;93.10;;;;;;5057163;28;20056;-77
2021/08/02 02:52:08;;;;;;;9.82;3.70;;;14.80;93.20;;;;;;5073649;28;20029;-77
2021/08/02 02:54:35;;;;;;;8.40;3.03;;;14.90;93.20;;;;;;5075091;28;20024;-77
2021/08/02 02:57:01;;;;;;;12.98;4.00;;;14.80;93.20;;;;;;5075006;28;20039;-77
2021/08/02 02:59:27;;;;;;;8.57;3.38;;;14.80;93.20;;;;;;5071723;28;20047;-78
2021/08/02 03:01:54;;;;;;;6.70;2.95;;;14.80;93.20;;;;;;5072114;28;20024;-78
2021/08/02 03:04:24;;;;;;;10.07;3.25;;;14.80;93.20;;;;;;5071163;28;20082;-77
2021/08/02 03:06:54;;;;;;;9.73;4.20;;;14.80;93.20;;;;;;5070183;28;20025;-78
2021/08/02 03:09:23;;;;;;;7.13;3.67;;;14.80;93.20;;;;;;5054786;28;20499;-78
2021/08/02 03:11:48;;;;;;;7.95;3.67;;;14.80;93.20;;;;;;5054560;28;20082;-78
2021/08/02 03:14:15;;;;;;;12.85;3.85;;;14.80;93.20;;;;;;5037125;28;20116;-76
2021/08/02 03:16:41;;;;;;;8.57;3.67;;;14.80;93.30;;;;;;5074007;28;20090;-76
2021/08/02 03:19:07;;;;;;;6.90;3.20;;;14.80;93.30;;;;;;5074256;28;20585;-77
2021/08/02 03:21:33;;;;;;;7.90;3.38;;;14.90;93.30;;;;;;5073360;28;20021;-77
2021/08/02 03:24:04;;;;;;;9.20;3.92;;;14.90;93.40;;;;;;5073606;28;20024;-77
2021/08/02 03:26:36;;;;;;;6.70;2.90;;;14.90;93.40;;;;;;5074564;28;20028;-78
2021/08/02 03:29:17;;;;;;;7.97;3.65;;;14.90;93.40;;;;;;5073408;28;20107;-76
2021/08/02 03:31:49;;;;;;;10.05;3.35;;;14.90;93.40;;;;;;5073706;28;20020;-76
2021/08/02 03:34:23;;;;;;;8.70;3.97;;;14.90;93.40;;;;;;5074265;28;20031;-76
2021/08/02 03:36:50;;;;;;;5.70;3.28;;;14.90;93.40;;;;;;5074612;28;20518;-76
2021/08/02 03:39:18;;;;;;;8.75;3.90;;;14.90;93.40;;;;;;5074338;28;20104;-76
2021/08/02 03:41:44;;;;;;;8.02;3.08;;;14.90;93.40;;;;;;5072939;28;20431;-76
2021/08/02 03:44:12;;;;;;;7.28;2.97;;;14.90;93.40;;;;;;5039591;28;20074;-76
2021/08/02 03:46:39;;;;;;;16.52;3.80;;;14.90;93.50;;;;;;5073234;28;20102;-76
2021/08/02 03:49:05;;;;;;;9.75;3.00;;;14.90;93.50;;;;;;5072941;28;20090;-76
2021/08/02 03:51:58;;;;;;;6.03;2.95;;;14.90;93.50;;;;;;5073196;28;20028;-76
2021/08/02 03:54:26;;;;;;;6.45;2.85;;;14.90;93.50;;;;;;5073620;28;20060;-76
2021/08/02 03:56:52;;;;;;;5.32;2.17;;;14.90;93.50;;;;;;5072998;28;20434;-76
2021/08/02 03:59:18;;;;;;;9.82;2.78;;;14.80;93.50;;;;;;5073896;28;20024;-76
2021/08/02 04:01:46;;;;;;;6.90;2.75;;;14.90;93.50;;;;;;5071412;28;20032;-76
2021/08/02 04:04:13;;;;;;;7.63;2.92;;;14.90;93.50;;;;;;5054527;28;20032;-76
2021/08/02 04:06:38;;;;;;;7.85;2.85;;;14.90;93.50;;;;;;5072790;28;20041;-76
2021/08/02 04:09:07;;;;;;;8.48;3.08;;;14.90;93.50;;;;;;5072691;28;20103;-76
2021/08/02 04:11:34;;;;;;;7.90;2.58;;;14.90;93.50;;;;;;5073464;28;20059;-76
2021/08/02 04:13:59;;;;;;;8.10;2.72;;;14.90;93.50;;;;;;5072526;28;20029;-76
2021/08/02 04:16:25;;;;;;;7.10;3.47;;;14.90;93.50;;;;;;5039540;28;20115;-76
2021/08/02 04:18:51;;;;;;;10.73;2.83;;;14.90;93.50;;;;;;5055459;28;20052;-76
2021/08/02 04:21:17;;;;;;;8.25;2.60;;;14.90;93.50;;;;;;5073354;28;20154;-76
2021/08/02 04:23:43;;;;;;;9.20;2.95;;;14.90;93.50;;;;;;5073444;28;20469;-76
2021/08/02 04:26:12;;;;;;;5.68;2.35;;;14.80;93.40;;;;;;5073431;28;20476;-76
2021/08/02 04:28:38;;;;;;;6.05;2.20;;;14.80;93.50;;;;;;5072104;28;20028;-76
2021/08/02 04:31:03;;;;;;;6.32;2.60;;;14.90;93.50;;;;;;5072134;28;20032;-77
2021/08/02 04:33:32;;;;;;;6.97;1.98;;;14.90;93.40;;;;;;5072363;28;20040;-76
2021/08/02 04:35:58;;;;;;;6.45;1.95;;;14.80;93.40;;;;;;5072366;28;20027;-76
2021/08/02 04:38:24;;;;;;;4.80;2.00;;;14.80;93.50;;;;;;5070851;28;20024;-78
2021/08/02 04:40:50;;;;;;;12.40;2.85;;;14.80;93.50;;;;;;5068617;28;20021;-78
2021/08/02 04:43:15;;;;;;;4.65;2.10;;;14.80;93.60;;;;;;5051607;28;20022;-78
2021/08/02 04:45:41;;;;;;;6.50;2.05;;;14.80;93.50;;;;;;5052202;28;20523;-77
2021/08/02 04:48:06;;;;;;;8.98;2.20;;;14.80;93.50;;;;;;5053286;28;20111;-78
2021/08/02 04:50:32;;;;;;;8.25;2.33;;;14.80;93.50;;;;;;5052107;28;20107;-78
2021/08/02 04:52:58;;;;;;;7.00;1.90;;;14.70;93.60;;;;;;5052071;28;20029;-78
2021/08/02 04:55:23;;;;;;;5.22;2.45;;;14.80;93.60;;;;;;5053650;28;20038;-79
2021/08/02 04:57:49;;;;;;;6.93;2.63;;;14.80;93.60;;;;;;5056195;28;20043;-78
2021/08/02 05:00:15;;;;;;;7.00;2.83;;;14.80;93.50;;;;;;5039384;28;20032;-77
2021/08/02 05:02:40;;;;;;;4.72;2.28;;;14.80;93.50;;;;;;5055845;28;20060;-78
2021/08/02 05:05:07;;;;;;;10.10;2.75;;;14.80;93.60;;;;;;5039100;28;20028;-78
2021/08/02 05:07:32;;;;;;;8.88;2.72;;;14.80;93.70;;;;;;5055935;28;20024;-78
2021/08/02 05:09:58;;;;;;;5.53;2.90;;;14.80;93.70;;;;;;5055789;28;20025;-78
2021/08/02 05:12:23;;;;;;;5.97;2.30;;;14.80;93.70;;;;;;5057069;28;20033;-78
2021/08/02 05:14:49;;;;;;;6.25;2.83;;;14.80;93.70;;;;;;5022582;28;20028;-78
2021/08/02 05:17:15;;;;;;;9.38;3.00;;;14.80;93.70;;;;;;5056018;28;20059;-78
2021/08/02 05:19:40;;;;;;;6.75;2.72;;;14.80;93.70;;;;;;5055534;28;20041;-78
2021/08/02 05:22:06;;;;;;;6.45;2.75;;;14.80;93.70;;;;;;5055680;28;20036;-78
2021/08/02 05:24:32;;;;;;;11.80;3.40;;;14.80;93.70;;;;;;5056967;28;20500;-78
2021/08/02 05:26:59;;;;;;;10.23;2.75;;;14.80;93.70;;;;;;5055445;28;20103;-78
2021/08/02 05:29:25;;;;;;;6.57;2.80;;;14.80;93.70;;;;;;5038832;28;20437;-78
2021/08/02 05:31:50;;;;;;;9.57;2.80;;;14.80;93.80;;;;;;5056603;28;20067;-78
2021/08/02 05:34:16;;;;;;;6.32;2.92;;;14.80;93.80;;;;;;5055367;28;20033;-78
2021/08/02 05:36:42;;;;;;;8.10;3.45;;;14.80;93.80;;;;;;5056476;28;20036;-77
2021/08/02 05:39:09;;;;;;;6.93;2.47;;;14.90;93.80;;;;;;5075164;28;20025;-78
2021/08/02 05:41:34;;;;;;;6.60;2.92;;;14.90;93.80;;;;;;5074908;28;20017;-78
2021/08/02 05:44:00;;;;;;;10.55;2.67;;;14.90;93.80;;;;;;5058675;28;20476;-80
2021/08/02 05:46:26;;;;;;;6.97;2.63;;;15.00;93.80;;;;;;5058271;28;20480;-78
2021/08/02 05:48:52;;;;;;;7.22;3.05;;;14.90;94.10;;;;;;5075085;28;20029;-78
2021/08/02 05:51:18;;;;;;;9.18;2.53;;;15.00;93.80;;;;;;5058418;28;20142;-78
2021/08/02 05:53:43;;;;;;;8.10;3.00;;;15.00;93.80;;;;;;5075206;28;20119;-77
2021/08/02 05:56:11;;;;;;;5.80;2.80;;;15.10;93.80;;;;;;5072661;28;20037;-76
2021/08/02 05:58:37;;;;;;;7.00;2.55;;;15.10;94.10;;;;;;5075069;28;20119;-77
2021/08/02 06:01:03;;;;;;;8.55;2.95;;;15.10;93.80;;;;;;5074952;28;20060;-77
2021/08/02 06:03:29;;;;;;;8.88;2.70;;;15.10;93.80;;;;;;5068984;28;20056;-77
2021/08/02 06:05:54;;;;;;;8.15;3.25;;;15.20;93.80;;;;;;5041650;28;20673;-76
2021/08/02 06:08:21;;;;;;;8.55;2.53;;;15.20;93.80;;;;;;5057977;28;20097;-76
2021/08/02 06:10:47;;;;;;;11.00;3.25;;;15.20;93.80;;;;;;5075780;28;20491;-76
2021/08/02 06:13:13;;;;;;;7.78;2.53;;;15.20;93.70;;;;;;5074730;28;20499;-77
2021/08/02 06:15:39;;;;;;;5.78;2.40;;;15.20;93.80;;;;;;5076074;28;20032;-76
2021/08/02 06:18:05;;;;;;;5.70;2.17;;;15.20;93.70;;;;;;5072614;28;20047;-77
2021/08/02 06:20:30;;;;;;;11.68;2.85;;;15.30;93.50;;;;;;5071105;28;20025;-77
2021/08/02 06:22:56;;;;;;;8.98;2.40;;;15.20;93.50;;;;;;5054296;28;20024;-76
2021/08/02 06:25:22;;;;;;;4.50;1.95;;;15.30;93.50;;;;;;5054744;28;20033;-77
2021/08/02 06:27:47;;;;;;;7.57;2.00;;;15.30;93.50;;;;;;5054762;28;20033;-76
2021/08/02 06:30:13;;;;;;;7.72;2.38;;;15.30;93.50;;;;;;5038361;28;20033;-76
2021/08/02 06:32:39;;;;;;;7.50;1.63;;;15.30;93.40;;;;;;5037758;28;20029;-76
2021/08/02 06:35:04;;;;;;;6.10;1.92;;;15.30;93.40;;;;;;5037724;28;20054;-76
2021/08/02 06:37:30;;;;;;;5.90;1.27;;;15.40;93.20;;;;;;5055666;28;20078;-76
2021/08/02 06:39:56;;;;;;;5.25;1.17;;;15.40;93.10;;;;;;5054296;28;20384;-75
2021/08/02 06:42:22;;;;;;;3.10;0.77;;;15.40;93.10;;;;;;5067057;28;20361;-76
2021/08/02 06:44:48;;;;;;;3.70;1.13;;;15.50;92.90;;;;;;5053872;28;20025;-75
2021/08/02 06:47:13;;;;;;;4.68;1.00;;;15.50;92.60;;;;;;5036727;28;20552;-76
2021/08/02 06:49:39;;;;;;;6.18;0.90;;;15.50;92.50;;;;;;5055079;28;20112;-77
2021/08/02 06:52:05;;;;;;;2.65;0.80;;;15.60;92.20;;;;;;5053810;28;20024;-76
2021/08/02 06:54:30;;;;;;;9.60;1.38;;;15.60;92.20;;;;;;5037231;28;20488;-76
2021/08/02 06:56:56;;;;;;;3.83;0.90;;;15.60;92.00;;;;;;5053777;28;20087;-76
2021/08/02 06:59:22;;;;;;;6.30;1.25;;;15.70;92.00;;;;;;5053811;28;20032;-76
2021/08/02 07:01:47;;;;;;;5.57;1.10;;;15.70;91.70;;;;;;5053582;28;20109;-76
2021/08/02 07:04:13;;;;;;;4.35;1.10;;;15.70;91.70;;;;;;5053532;28;20024;-76
2021/08/02 07:06:41;;;;;;;6.97;0.80;;;15.80;91.50;;;;;;5053776;28;20389;-76
2021/08/02 07:09:07;;;;;;;3.65;1.15;;;15.80;91.50;;;;;;5054751;28;20385;-76
2021/08/02 07:11:33;;;;;;;3.13;0.70;;;15.80;91.40;;;;;;5053686;28;20040;-75
2021/08/02 07:13:59;;;;;;;5.60;0.95;;;15.90;91.40;;;;;;5054595;28;20033;-76
2021/08/02 07:16:24;;;;;;;7.78;0.77;;;15.90;91.30;;;;;;5053271;28;20413;-75
2021/08/02 07:18:54;;;;;;;4.38;0.80;;;16.00;91.20;;;;;;5053851;28;20040;-76
2021/08/02 07:21:20;;;;;;;5.88;0.80;;;16.00;91.50;;;;;;5054575;28;20027;-76
2021/08/02 07:23:46;;;;;;;5.95;0.80;;;16.10;91.20;;;;;;5054707;28;20025;-75
2021/08/02 07:26:12;;;;;;;4.80;0.73;;;16.20;90.90;;;;;;5053271;28;20025;-76
2021/08/02 07:28:38;;;;;;;5.53;0.70;;;16.30;90.60;;;;;;5053107;28;20048;-76
2021/08/02 07:31:04;;;;;;;2.33;0.70;;;16.40;90.70;;;;;;5052971;28;20021;-76
2021/08/02 07:33:29;;;;;;;4.13;0.77;;;16.60;90.40;;;;;;5054309;28;20766;-76
2021/08/02 07:35:56;;;;;;;3.17;0.75;;;16.70;90.30;;;;;;5052798;28;20631;-76
2021/08/02 07:38:22;;;;;;;5.05;0.70;;;16.80;90.10;;;;;;5054191;28;20103;-79
2021/08/02 07:40:48;;;;;;;3.28;0.70;;;16.80;89.70;;;;;;5053063;28;20096;-78
2021/08/02 07:43:14;;;;;;;4.50;0.73;;;16.90;89.40;;;;;;5052875;28;20025;-79
2021/08/02 07:45:39;;;;;;;5.50;1.25;;;17.00;88.70;;;;;;5036431;28;20029;-78
2021/08/02 07:48:05;;;;;;;4.97;0.65;;;17.10;88.60;;;;;;5052893;28;20112;-77
2021/08/02 07:50:31;;;;;;;3.67;0.80;;;17.10;88.50;;;;;;5052833;28;20112;-79
2021/08/02 07:52:57;;;;;;;9.73;0.75;;;17.20;88.00;;;;;;5036337;28;20033;-78
2021/08/02 07:55:23;;;;;;;4.28;0.50;;;17.20;87.70;;;;;;5053839;28;20021;-80
2021/08/02 07:57:49;;;;;;;2.85;0.50;;;17.20;87.70;;;;;;5064437;28;20082;-81
2021/08/02 08:00:17;;;;;;;2.35;0.55;;;17.30;87.30;;;;;;5073779;28;20477;-78
2021/08/02 08:02:43;;;;;;;4.50;0.70;;;17.30;87.10;;;;;;5056535;28;20477;-79
2021/08/02 08:05:10;;;;;;;6.07;0.80;;;17.30;87.00;;;;;;5073783;28;20035;-81
2021/08/02 08:07:43;;;;;;;5.20;0.65;;;17.40;86.00;;;;;;5073877;28;20070;-79
2021/08/02 08:10:10;;;;;;;4.07;0.60;;;17.40;85.40;;;;;;5067948;28;20029;-83
2021/08/02 08:12:36;;;;;;;3.40;1.02;;;17.50;84.70;;;;;;5052240;28;20044;-80
2021/08/02 08:15:02;;;;;;;4.65;0.82;;;17.50;83.20;;;;;;5052133;28;20381;-80
2021/08/02 08:17:28;;;;;;;1.90;0.70;;;17.60;81.90;;;;;;5053164;28;20024;-80
2021/08/02 08:19:53;;;;;;;9.00;0.70;;;17.60;82.00;;;;;;5052125;28;20025;-79
2021/08/02 08:22:19;;;;;;;2.13;0.90;;;17.70;82.10;;;;;;5035722;28;20026;-80
2021/08/02 08:24:45;;;;;;;4.72;0.70;;;17.90;81.90;;;;;;5035467;28;20029;-80
2021/08/02 08:27:10;;;;;;;3.83;0.70;;;18.00;81.70;;;;;;5052502;28;20033;-81
2021/08/02 08:29:36;;;;;;;2.65;0.80;;;18.10;80.90;;;;;;5034581;28;20091;-76
2021/08/02 08:32:02;;;;;;;2.78;0.70;;;18.20;80.40;;;;;;5018914;28;20029;-76
2021/08/02 08:34:27;;;;;;;2.95;0.80;;;18.20;79.60;;;;;;5052050;28;20052;-76
2021/08/02 08:36:53;;;;;;;2.50;0.63;;;18.20;79.00;;;;;;5035524;28;20472;-76
2021/08/02 08:39:18;;;;;;;3.42;0.80;;;18.20;78.00;;;;;;5035311;28;20477;-75
2021/08/02 08:41:45;;;;;;;3.05;1.13;;;18.20;77.90;;;;;;5035290;28;20025;-76
2021/08/02 08:44:12;;;;;;;3.88;0.90;;;18.20;77.30;;;;;;5052167;28;20378;-76
2021/08/02 08:46:37;;;;;;;4.35;1.10;;;18.20;77.40;;;;;;5035449;28;20036;-76
2021/08/02 08:49:04;;;;;;;2.55;0.80;;;18.20;77.60;;;;;;5035185;28;20033;-76
2021/08/02 08:51:32;;;;;;;4.22;1.00;;;18.20;77.80;;;;;;5035463;28;20082;-76
2021/08/02 08:53:58;;;;;;;3.28;0.63;;;18.30;77.80;;;;;;5035246;28;20036;-75
2021/08/02 08:56:23;;;;;;;3.70;0.75;;;18.30;76.70;;;;;;5050049;28;20040;-76
2021/08/02 08:58:49;;;;;;;4.85;1.45;;;18.20;76.60;;;;;;5039503;28;20025;-75
2021/08/02 09:01:15;;;;;;;2.58;0.80;;;18.20;76.10;;;;;;5051432;28;20037;-77
2021/08/02 09:03:53;;;;;;;3.95;1.10;;;18.20;76.30;;;;;;5053079;28;20064;-76
2021/08/02 09:06:19;;;;;;;5.97;1.00;;;18.10;76.50;;;;;;5052350;28;20033;-77
2021/08/02 09:08:45;;;;;;;2.00;0.70;;;18.10;76.00;;;;;;5053230;28;20032;-77
2021/08/02 09:11:22;;;;;;;2.50;0.90;;;18.10;76.10;;;;;;5053245;28;20504;-75
2021/08/02 09:13:49;;;;;;;4.00;0.80;;;18.10;76.40;;;;;;5053380;28;20057;-76
2021/08/02 09:16:20;;;;;;;3.22;0.88;;;18.10;76.40;;;;;;5052877;28;20032;-76
2021/08/02 09:18:59;;;;;;;3.40;0.80;;;18.10;76.50;;;;;;5053374;28;20045;-76
2021/08/02 09:21:26;;;;;;;3.83;1.15;;;18.20;76.30;;;;;;5053169;28;20033;-77
2021/08/02 09:23:55;;;;;;;2.17;0.77;;;18.20;76.10;;;;;;5052997;28;20071;-77
2021/08/02 09:26:37;;;;;;;2.83;0.70;;;18.30;75.90;;;;;;5052053;28;20021;-76
2021/08/02 09:29:04;;;;;;;3.22;0.90;;;18.40;76.10;;;;;;5035875;28;20029;-77
2021/08/02 09:31:53;;;;;;;1.73;0.50;;;18.50;75.80;;;;;;5051851;28;20037;-76
2021/08/02 09:34:22;;;;;;;3.47;1.02;;;18.60;75.40;;;;;;5052933;28;20086;-76
2021/08/02 09:36:54;;;;;;;4.18;1.08;;;18.80;75.20;;;;;;5051426;28;20037;-76
2021/08/02 09:39:21;;;;;;;2.88;0.80;;;18.90;75.20;;;;;;5051758;28;20697;-76
2021/08/02 09:41:47;;;;;;;1.67;0.50;;;19.10;75.20;;;;;;5054093;28;20029;-76
2021/08/02 09:44:23;;;;;;;3.38;0.90;;;19.20;74.50;;;;;;5056481;28;20102;-75
2021/08/02 09:46:57;;;;;;;1.63;0.50;;;19.40;74.10;;;;;;5056500;28;20504;-76
2021/08/02 09:49:24;;;;;;;3.08;0.75;;;19.60;74.00;;;;;;5056495;28;20078;-76
2021/08/02 09:51:49;;;;;;;3.60;0.47;;;19.80;73.80;;;;;;5054954;28;20095;-76
2021/08/02 09:54:29;;;;;;;3.03;0.73;;;20.00;72.70;;;;;;5055451;28;20033;-76
2021/08/02 09:56:56;;;;;;;1.65;0.50;;;20.20;71.50;;;;;;5038553;28;20079;-77
2021/08/02 09:59:22;;;;;;;3.85;0.60;;;20.40;71.20;;;;;;5056329;28;20033;-76
2021/08/02 10:01:50;;;;;;;2.97;0.50;;;20.60;70.30;;;;;;5043330;28;20029;-76
2021/08/02 10:04:17;;;;;;;3.20;0.50;;;20.70;69.60;;;;;;5054819;28;20082;-76
2021/08/02 10:06:43;;;;;;;2.92;0.60;;;20.90;69.00;;;;;;5054468;28;20037;-76
2021/08/02 10:09:12;;;;;;;4.47;0.60;;;21.00;69.10;;;;;;5038174;28;20029;-76
2021/08/02 10:11:37;;;;;;;3.55;1.15;;;21.20;68.10;;;;;;5055878;28;20502;-77
2021/08/02 10:14:03;;;;;;;5.10;0.82;;;21.40;67.60;;;;;;5059992;28;20066;-77
2021/08/02 10:16:30;;;;;;;5.63;0.70;;;21.40;65.70;;;;;;5060690;28;20059;-76
2021/08/02 10:19:05;;;;;;;3.38;0.70;;;21.40;65.70;;;;;;5055581;28;20071;-76
2021/08/02 10:21:46;;;;;;;5.13;0.93;;;21.40;64.70;;;;;;5054490;28;20028;-76
2021/08/02 10:24:16;;;;;;;2.75;0.43;;;21.20;65.00;;;;;;5054786;28;20017;-77
2021/08/02 10:26:57;;;;;;;3.30;0.50;;;21.20;65.30;;;;;;5055724;28;20108;-76
2021/08/02 10:29:24;;;;;;;4.45;0.70;;;21.20;65.40;;;;;;5056077;28;20029;-75
2021/08/02 10:31:51;;;;;;;6.43;0.70;;;21.10;64.90;;;;;;5055696;28;20029;-75
2021/08/02 10:34:24;;;;;;;6.13;0.60;;;21.00;64.40;;;;;;5055861;28;20033;-74
2021/08/02 10:37:32;;;;;;;4.03;0.80;;;20.90;64.20;;;;;;5054446;28;20036;-75
2021/08/02 10:40:09;;;;;;;3.15;0.60;;;20.80;63.90;;;;;;5054988;28;20476;-75
2021/08/02 10:42:51;;;;;;;2.28;0.50;;;20.80;64.30;;;;;;5055409;28;20103;-78
2021/08/02 10:45:29;;;;;;;3.05;0.60;;;20.70;63.30;;;;;;5054340;28;20029;-74
2021/08/02 10:47:54;;;;;;;4.13;0.57;;;20.80;63.30;;;;;;5071060;28;20029;-74
2021/08/02 10:50:30;;;;;;;4.20;0.65;;;20.80;62.60;;;;;;5055650;28;20392;-76
2021/08/02 10:52:56;;;;;;;1.90;0.60;;;20.90;62.40;;;;;;5054344;28;20116;-76
2021/08/02 10:55:25;;;;;;;3.67;0.60;;;21.10;62.10;;;;;;5070852;28;20025;-75
2021/08/02 10:57:59;;;;;;;2.50;0.40;;;21.40;61.70;;;;;;5055182;28;20021;-76
2021/08/02 11:00:25;;;;;;;2.17;0.43;;;21.60;61.10;;;;;;5037627;28;20029;-76
2021/08/02 11:02:55;;;;;;;5.43;0.90;;;21.70;61.20;;;;;;5055163;28;20444;-77
2021/08/02 11:05:29;;;;;;;2.35;0.70;;;21.80;60.70;;;;;;5070194;28;20582;-76
2021/08/02 11:08:00;;;;;;;1.67;0.35;;;22.00;60.40;;;;;;5054040;28;20029;-75
2021/08/02 11:10:26;;;;;;;2.97;0.40;;;22.10;60.00;;;;;;5055615;28;20366;-76
2021/08/02 11:12:51;;;;;;;3.13;0.40;;;22.30;59.60;;;;;;5053789;28;20031;-76
2021/08/02 11:15:17;;;;;;;4.82;0.60;;;22.50;59.40;;;;;;5053597;28;20037;-76
2021/08/02 11:17:51;;;;;;;5.10;0.60;;;22.60;59.10;;;;;;5053858;28;20377;-76
2021/08/02 11:20:18;;;;;;;2.25;0.60;;;22.90;59.10;;;;;;5054797;28;20025;-76
2021/08/02 11:22:53;;;;;;;6.45;0.70;;;23.20;59.00;;;;;;5054722;28;20029;-76
2021/08/02 11:25:37;;;;;;;3.80;0.60;;;23.50;58.30;;;;;;5053673;28;20041;-76
2021/08/02 11:28:03;;;;;;;4.10;0.47;;;23.80;57.80;;;;;;5054391;28;20047;-76
2021/08/02 11:30:30;;;;;;;1.88;0.40;;;24.10;56.20;;;;;;5054374;28;20029;-76
2021/08/02 11:32:56;;;;;;;3.53;0.40;;;24.30;55.30;;;;;;5036863;28;20029;-76
2021/08/02 11:35:32;;;;;;;3.50;0.50;;;24.30;54.20;;;;;;5054678;28;20435;-75
2021/08/02 11:37:57;;;;;;;4.85;0.40;;;24.30;53.20;;;;;;5052951;28;20528;-76
2021/08/02 11:40:26;;;;;;;5.32;0.55;;;24.20;52.60;;;;;;5053013;28;20128;-75
2021/08/02 11:43:01;;;;;;;2.35;0.50;;;24.10;53.40;;;;;;5021251;28;20025;-76
2021/08/02 11:45:28;;;;;;;4.55;0.40;;;24.10;52.90;;;;;;5054200;28;20044;-76
2021/08/02 11:47:55;;;;;;;1.98;0.43;;;24.40;52.50;;;;;;5054697;28;20029;-76
2021/08/02 11:50:21;;;;;;;2.47;0.40;;;24.60;52.20;;;;;;5020309;28;20082;-76
2021/08/02 11:52:57;;;;;;;2.38;0.40;;;24.90;52.00;;;;;;5054452;28;20032;-76
2021/08/02 11:55:23;;;;;;;2.70;0.50;;;25.00;51.40;;;;;;5052609;28;20032;-76
2021/08/02 11:57:58;;;;;;;2.08;0.35;;;25.00;51.20;;;;;;5069413;28;20025;-76
2021/08/02 12:00:24;;;;;;;1.95;0.40;;;25.00;50.60;;;;;;5069751;28;20550;-76
2021/08/02 12:02:50;;;;;;;1.98;0.50;;;25.10;50.10;;;;;;5052759;28;20029;-76
2021/08/02 12:05:27;;;;;;;3.78;0.50;;;25.20;49.40;;;;;;5053943;28;20033;-76
2021/08/02 12:07:54;;;;;;;3.28;0.60;;;25.30;48.70;;;;;;5053901;28;20029;-76
2021/08/02 12:10:24;;;;;;;1.25;0.30;;;25.20;48.30;;;;;;5067264;28;20039;-81
2021/08/02 12:12:59;;;;;;;3.03;0.40;;;25.20;47.60;;;;;;5052924;28;20029;-80
2021/08/02 12:15:26;;;;;;;1.98;0.40;;;25.30;48.20;;;;;;5053590;28;20527;-81
2021/08/02 12:17:53;;;;;;;1.70;0.30;;;25.30;47.50;;;;;;5052237;28;20053;-79
2021/08/02 12:20:32;;;;;;;2.35;0.30;;;25.40;47.40;;;;;;5053716;28;20025;-81
2021/08/02 12:22:59;;;;;;;3.15;0.40;;;25.60;47.10;;;;;;5054471;28;20036;-80
2021/08/02 12:25:33;;;;;;;1.73;0.30;;;25.60;46.90;;;;;;5052438;28;20033;-81
2021/08/02 12:28:00;;;;;;;2.42;0.45;;;25.70;46.50;;;;;;5052309;28;20362;-81
2021/08/02 12:30:27;;;;;;;1.88;0.40;;;25.70;46.60;;;;;;5052265;28;20025;-78
2021/08/02 12:32:52;;;;;;;3.95;0.45;;;25.70;46.20;;;;;;5043301;28;20122;-79
2021/08/02 12:35:19;;;;;;;2.17;0.40;;;25.80;45.90;;;;;;5060401;28;20484;-78
2021/08/02 12:37:46;;;;;;;2.58;0.40;;;25.70;45.80;;;;;;5051813;28;20052;-79
2021/08/02 12:40:17;;;;;;;1.70;0.40;;;25.60;45.70;;;;;;5053745;28;20068;-78
2021/08/02 12:42:47;;;;;;;1.30;0.60;;;25.60;45.70;;;;;;5053685;28;20025;-83
2021/08/02 12:45:14;;;;;;;1.50;0.50;;;25.70;46.10;;;;;;5052250;28;20108;-80
2021/08/02 12:47:41;;;;;;;1.45;0.40;;;26.10;46.60;;;;;;5053282;28;20481;-79
2021/08/02 12:50:09;;;;;;;2.17;0.55;;;26.50;46.80;;;;;;5052742;28;20115;-81
2021/08/02 12:52:35;;;;;;;1.70;0.40;;;26.60;45.70;;;;;;5052170;28;20021;-79